Le Ray, New York
Current Conditions -  °F | °C
As of 2:08 AM on Saturday 29 Nov 2014 (Local Time) from KGTB Reporting Station
Overcast Overcast  
Wind Chill: 14°   Ceiling: 2900
Heat Index: 21°   Visibility: 10mi
Dew Point: 16°   Wind: 6mph
Humidity: 80%   Direction: 170°S
Pressure: 30.19"   Gusts: NA
Location:  44.0981°N, 75.8331°W
Report Text: KGTB 290708Z AUTO 17005KT 10SM BKN029 OVC039 M06/M09 A3019 RMK AO2 CIG 029V039 BKN V SCT
Loading
Personal Weather Stations






























Interactive Weather Map New forecast layout! Learn more

10-Day Weather Forecast

Advertisements
Track Severe Weather on mobile